createdAt,value
2018-04-13T00:00:06.624Z,14.46
2018-04-13T00:01:06.642Z,14.50
2018-04-13T00:02:06.656Z,14.52
2018-04-13T00:03:06.674Z,14.50
2018-04-13T00:04:06.689Z,14.50
2018-04-13T00:05:06.707Z,14.52
2018-04-13T00:06:06.721Z,14.51
2018-04-13T00:07:06.737Z,14.46
2018-04-13T00:08:06.752Z,14.51
2018-04-13T00:09:06.768Z,14.47
2018-04-13T00:10:06.789Z,14.35
2018-04-13T00:11:06.805Z,14.39
2018-04-13T00:12:06.816Z,14.36
2018-04-13T00:13:06.833Z,14.29
2018-04-13T00:14:06.856Z,14.50
2018-04-13T00:15:06.867Z,14.40
2018-04-13T00:16:06.884Z,14.46
2018-04-13T00:17:06.900Z,14.50
2018-04-13T00:18:06.914Z,14.55
2018-04-13T00:19:06.931Z,14.62
2018-04-13T00:20:06.947Z,14.54
2018-04-13T00:21:06.967Z,14.50
2018-04-13T00:22:06.980Z,14.54
2018-04-13T00:23:06.997Z,14.50
2018-04-13T00:24:07.013Z,14.46
2018-04-13T00:25:07.031Z,14.46
2018-04-13T00:26:07.046Z,14.51
2018-04-13T00:27:07.062Z,14.50
2018-04-13T00:28:07.078Z,14.37
2018-04-13T00:29:07.096Z,14.36
2018-04-13T00:30:07.112Z,14.39
2018-04-13T00:31:07.127Z,14.36
2018-04-13T00:32:07.150Z,14.32
2018-04-13T00:33:07.160Z,14.35
2018-04-13T00:34:07.177Z,14.37
2018-04-13T00:35:07.194Z,14.29
2018-04-13T00:36:07.209Z,14.28
2018-04-13T00:37:07.225Z,14.29
2018-04-13T00:38:07.242Z,14.17
2018-04-13T00:39:07.260Z,14.14
2018-04-13T00:40:07.277Z,14.09
2018-04-13T00:41:07.290Z,14.06
2018-04-13T00:42:07.310Z,14.03
2018-04-13T00:43:07.321Z,14.06
2018-04-13T00:44:07.340Z,14.06
2018-04-13T00:45:07.355Z,14.04
2018-04-13T00:46:07.371Z,14.04
2018-04-13T00:47:07.387Z,14.02
2018-04-13T00:48:07.405Z,14.03
2018-04-13T00:49:07.419Z,14.00
2018-04-13T00:50:07.437Z,13.99
2018-04-13T00:51:07.452Z,14.07
2018-04-13T00:52:07.470Z,14.03
2018-04-13T00:53:07.484Z,14.02
2018-04-13T00:54:07.502Z,14.00
2018-04-13T00:55:07.520Z,13.99
2018-04-13T00:56:07.554Z,13.95
2018-04-13T00:57:07.547Z,13.95
2018-04-13T00:58:07.566Z,13.89
2018-04-13T00:59:07.583Z,13.88
2018-04-13T01:00:07.601Z,13.91
2018-04-13T01:01:07.614Z,13.88
2018-04-13T01:02:07.629Z,13.92
2018-04-13T01:03:07.647Z,13.91
2018-04-13T01:04:07.665Z,13.89
2018-04-13T01:05:07.677Z,13.88
2018-04-13T01:06:07.695Z,13.88
2018-04-13T01:07:07.724Z,13.88
2018-04-13T01:08:07.728Z,13.91
2018-04-13T01:09:07.746Z,13.88
2018-04-13T01:10:07.759Z,13.87
2018-04-13T01:11:07.779Z,13.87
2018-04-13T01:12:07.794Z,13.85
2018-04-13T01:13:07.807Z,13.96
2018-04-13T01:14:07.824Z,13.89
2018-04-13T01:15:07.841Z,13.89
2018-04-13T01:16:07.864Z,13.96
2018-04-13T01:17:07.879Z,13.92
2018-04-13T01:18:07.889Z,14.02
2018-04-13T01:19:07.908Z,13.91
2018-04-13T01:20:07.922Z,14.02
2018-04-13T01:21:07.936Z,13.89
2018-04-13T01:22:07.952Z,13.89
2018-04-13T01:23:07.969Z,13.85
2018-04-13T01:24:07.988Z,13.88
2018-04-13T01:25:08.007Z,13.88
2018-04-13T01:26:08.023Z,13.89
2018-04-13T01:27:08.037Z,13.87
2018-04-13T01:28:08.053Z,13.82
2018-04-13T01:29:08.068Z,13.81
2018-04-13T01:30:08.084Z,13.88
2018-04-13T01:31:08.100Z,13.81
2018-04-13T01:32:08.116Z,13.78
2018-04-13T01:33:08.138Z,13.77
2018-04-13T01:34:08.148Z,13.79
2018-04-13T01:35:08.168Z,13.77
2018-04-13T01:36:08.181Z,13.71
2018-04-13T01:37:08.198Z,13.75
2018-04-13T01:38:08.221Z,13.73
2018-04-13T01:39:08.231Z,13.73
2018-04-13T01:40:08.246Z,13.71
2018-04-13T01:41:08.263Z,13.81
2018-04-13T01:42:08.277Z,13.77
2018-04-13T01:43:08.294Z,13.75
2018-04-13T01:44:08.312Z,13.77
2018-04-13T01:45:08.326Z,13.82
2018-04-13T01:46:08.340Z,13.79
2018-04-13T01:47:08.360Z,13.82
2018-04-13T01:48:08.374Z,13.75
2018-04-13T01:49:08.389Z,13.70
2018-04-13T01:50:08.406Z,13.71
2018-04-13T01:51:08.429Z,13.66
2018-04-13T01:52:08.440Z,13.69
2018-04-13T01:53:08.454Z,13.71
2018-04-13T01:54:08.469Z,13.69
2018-04-13T01:55:08.487Z,13.66
2018-04-13T01:56:08.502Z,13.57
2018-04-13T01:57:08.518Z,13.63
2018-04-13T01:58:08.540Z,13.60
2018-04-13T01:59:08.555Z,13.62
2018-04-13T02:00:08.568Z,13.59
2018-04-13T02:01:08.585Z,13.63
2018-04-13T02:02:08.601Z,13.64
2018-04-13T02:03:08.619Z,13.63
2018-04-13T02:04:08.652Z,13.66
2018-04-13T02:05:08.675Z,13.62
2018-04-13T02:06:08.663Z,13.60
2018-04-13T02:07:08.679Z,13.59
2018-04-13T02:08:08.699Z,13.62
2018-04-13T02:09:08.711Z,13.59
2018-04-13T02:10:08.726Z,13.64
2018-04-13T02:11:08.742Z,13.66
2018-04-13T02:12:08.760Z,13.60
2018-04-13T02:13:08.779Z,13.66
2018-04-13T02:14:08.790Z,13.60
2018-04-13T02:15:08.808Z,13.52
2018-04-13T02:16:08.825Z,13.51
2018-04-13T02:17:08.839Z,13.48
2018-04-13T02:18:08.860Z,13.45
2018-04-13T02:19:08.870Z,13.57
2018-04-13T02:20:08.889Z,13.52
2018-04-13T02:21:08.903Z,13.46
2018-04-13T02:22:08.918Z,13.44
2018-04-13T02:23:08.935Z,13.45
2018-04-13T02:24:08.952Z,13.44
2018-04-13T02:25:08.966Z,13.44
2018-04-13T02:26:08.983Z,13.42
2018-04-13T02:27:08.999Z,13.38
2018-04-13T02:28:09.019Z,13.36
2018-04-13T02:29:09.031Z,13.36
2018-04-13T02:30:09.060Z,13.33
2018-04-13T02:31:09.434Z,13.36
2018-04-13T02:32:09.079Z,13.32
2018-04-13T02:33:09.096Z,13.33
2018-04-13T02:34:09.109Z,13.28
2018-04-13T02:35:09.126Z,13.32
2018-04-13T02:36:09.144Z,13.20
2018-04-13T02:37:09.160Z,13.25
2018-04-13T02:38:09.172Z,13.17
2018-04-13T02:39:09.190Z,13.19
2018-04-13T02:40:09.209Z,13.14
2018-04-13T02:41:09.222Z,13.08
2018-04-13T02:42:09.238Z,13.03
2018-04-13T02:43:09.254Z,13.04
2018-04-13T02:44:09.268Z,13.14
2018-04-13T02:45:09.286Z,13.17
2018-04-13T02:46:09.302Z,13.15
2018-04-13T02:47:09.319Z,13.17
2018-04-13T02:48:09.336Z,13.17
2018-04-13T02:49:09.349Z,13.12
2018-04-13T02:50:09.364Z,13.20
2018-04-13T02:51:09.380Z,13.22
2018-04-13T02:52:09.395Z,13.19
2018-04-13T02:53:09.418Z,13.19
2018-04-13T02:54:09.427Z,13.20
2018-04-13T02:55:09.443Z,13.14
2018-04-13T02:56:09.458Z,13.22
2018-04-13T02:57:09.474Z,13.19
2018-04-13T02:58:09.490Z,13.23
2018-04-13T02:59:09.506Z,13.20
2018-04-13T03:00:09.522Z,13.20
2018-04-13T03:01:09.537Z,13.15
2018-04-13T03:02:09.553Z,13.17
2018-04-13T03:03:09.571Z,13.14
2018-04-13T03:04:09.585Z,13.19
2018-04-13T03:05:09.600Z,13.12
2018-04-13T03:06:09.617Z,13.17
2018-04-13T03:07:09.633Z,13.14
2018-04-13T03:08:09.647Z,13.11
2018-04-13T03:09:09.663Z,13.10
2018-04-13T03:10:09.680Z,13.08
2018-04-13T03:11:09.697Z,13.04
2018-04-13T03:12:09.713Z,13.05
2018-04-13T03:13:09.730Z,12.96
2018-04-13T03:14:09.744Z,12.97
2018-04-13T03:15:09.762Z,12.92
2018-04-13T03:16:09.776Z,12.93
2018-04-13T03:17:09.792Z,12.87
2018-04-13T03:18:09.809Z,12.86
2018-04-13T03:19:09.826Z,12.77
2018-04-13T03:20:09.839Z,12.78
2018-04-13T03:21:09.858Z,12.79
2018-04-13T03:22:09.883Z,12.79
2018-04-13T03:23:09.987Z,12.74
2018-04-13T03:24:09.905Z,12.67
2018-04-13T03:25:09.917Z,12.70
2018-04-13T03:26:09.932Z,12.70
2018-04-13T03:27:09.951Z,12.70
2018-04-13T03:28:09.966Z,12.70
2018-04-13T03:29:09.981Z,12.60
2018-04-13T03:30:09.997Z,12.62
2018-04-13T03:31:10.027Z,12.65
2018-04-13T03:32:10.029Z,12.62
2018-04-13T03:33:10.049Z,12.57
2018-04-13T03:34:10.061Z,12.49
2018-04-13T03:35:10.074Z,12.53
2018-04-13T03:36:10.092Z,12.52
2018-04-13T03:37:10.700Z,12.53
2018-04-13T03:38:10.368Z,12.53
2018-04-13T03:39:10.238Z,12.50
2018-04-13T03:40:10.159Z,12.46
2018-04-13T03:41:10.168Z,12.52
2018-04-13T03:42:10.242Z,12.49
2018-04-13T03:43:10.199Z,12.62
2018-04-13T03:44:10.218Z,12.52
2018-04-13T03:45:10.228Z,12.57
2018-04-13T03:46:10.240Z,12.60
2018-04-13T03:47:10.307Z,12.62
2018-04-13T03:48:10.272Z,12.64
2018-04-13T03:49:10.287Z,12.67
2018-04-13T03:50:10.308Z,12.59
2018-04-13T03:51:10.335Z,12.64
2018-04-13T03:52:10.335Z,12.60
2018-04-13T03:53:10.350Z,12.64
2018-04-13T03:54:10.367Z,12.60
2018-04-13T03:55:10.385Z,12.57
2018-04-13T03:56:10.398Z,12.59
2018-04-13T03:57:10.412Z,12.60
2018-04-13T03:58:10.429Z,12.57
2018-04-13T03:59:10.443Z,12.60
2018-04-13T04:00:10.459Z,12.64
2018-04-13T04:01:10.473Z,12.59
2018-04-13T04:02:10.541Z,12.56
2018-04-13T04:03:10.506Z,12.56
2018-04-13T04:04:10.523Z,12.57
2018-04-13T04:05:10.538Z,12.59
2018-04-13T04:06:10.558Z,12.54
2018-04-13T04:07:10.569Z,12.64
2018-04-13T04:08:10.588Z,12.54
2018-04-13T04:09:10.607Z,12.53
2018-04-13T04:10:10.621Z,12.50
2018-04-13T04:11:10.640Z,12.62
2018-04-13T04:12:10.648Z,12.50
2018-04-13T04:13:10.665Z,12.50
2018-04-13T04:14:10.679Z,12.50
2018-04-13T04:15:10.698Z,12.52
2018-04-13T04:16:10.710Z,12.47
2018-04-13T04:17:10.725Z,12.49
2018-04-13T04:18:10.740Z,12.54
2018-04-13T04:19:10.758Z,12.49
2018-04-13T04:20:10.778Z,12.52
2018-04-13T04:21:10.789Z,12.52
2018-04-13T04:22:10.805Z,12.49
2018-04-13T04:23:10.825Z,12.53
2018-04-13T04:24:10.880Z,12.50
2018-04-13T04:25:10.856Z,12.49
2018-04-13T04:26:10.867Z,12.50
2018-04-13T04:27:10.882Z,12.54
2018-04-13T04:28:10.902Z,12.56
2018-04-13T04:29:10.914Z,12.53
2018-04-13T04:30:10.928Z,12.54
2018-04-13T04:31:10.949Z,12.47
2018-04-13T04:32:10.962Z,12.50
2018-04-13T04:33:10.977Z,12.50
2018-04-13T04:34:10.993Z,12.54
2018-04-13T04:35:11.007Z,12.53
2018-04-13T04:36:11.028Z,12.57
2018-04-13T04:37:11.041Z,12.53
2018-04-13T04:38:11.054Z,12.53
2018-04-13T04:39:11.070Z,12.56
2018-04-13T04:40:11.086Z,12.50
2018-04-13T04:41:11.101Z,12.53
2018-04-13T04:42:11.121Z,12.60
2018-04-13T04:43:11.133Z,12.64
2018-04-13T04:44:11.148Z,12.59
2018-04-13T04:45:11.162Z,12.53
2018-04-13T04:46:11.184Z,12.57
2018-04-13T04:47:11.202Z,12.57
2018-04-13T04:48:11.213Z,12.67
2018-04-13T04:49:11.233Z,12.70
2018-04-13T04:50:11.242Z,12.74
2018-04-13T04:51:11.258Z,12.74
2018-04-13T04:52:11.276Z,12.74
2018-04-13T04:53:11.294Z,12.75
2018-04-13T04:54:11.309Z,12.83
2018-04-13T04:55:11.322Z,12.87
2018-04-13T04:56:11.339Z,12.86
2018-04-13T04:57:11.353Z,12.87
2018-04-13T04:58:11.370Z,13.01
2018-04-13T04:59:11.390Z,13.07
2018-04-13T05:00:11.403Z,13.00
2018-04-13T05:01:11.416Z,13.05
2018-04-13T05:02:11.438Z,13.05
2018-04-13T05:03:11.454Z,13.05
2018-04-13T05:04:11.464Z,13.11
2018-04-13T05:05:11.477Z,13.14
2018-04-13T05:06:11.503Z,13.11
2018-04-13T05:07:11.509Z,13.19
2018-04-13T05:08:11.526Z,13.19
2018-04-13T05:09:11.540Z,13.23
2018-04-13T05:10:11.557Z,13.14
2018-04-13T05:11:11.586Z,13.23
2018-04-13T05:12:11.590Z,13.23
2018-04-13T05:13:11.610Z,13.23
2018-04-13T05:14:11.622Z,13.29
2018-04-13T05:15:11.637Z,13.22
2018-04-13T05:16:11.656Z,13.22
2018-04-13T05:17:11.680Z,13.20
2018-04-13T05:18:11.690Z,13.15
2018-04-13T05:19:11.702Z,13.12
2018-04-13T05:20:11.716Z,13.07
2018-04-13T05:21:11.787Z,13.14
2018-04-13T05:22:11.755Z,13.19
2018-04-13T05:23:11.777Z,13.14
2018-04-13T05:24:11.798Z,13.12
2018-04-13T05:25:11.795Z,13.15
2018-04-13T05:26:11.810Z,13.14
2018-04-13T05:27:11.826Z,13.08
2018-04-13T05:28:11.843Z,13.19
2018-04-13T05:29:11.883Z,13.17
2018-04-13T05:30:11.876Z,13.10
2018-04-13T05:31:11.891Z,13.07
2018-04-13T05:32:11.906Z,13.10
2018-04-13T05:33:11.925Z,13.07
2018-04-13T05:34:11.937Z,13.11
2018-04-13T05:35:12.044Z,13.08
2018-04-13T05:36:11.973Z,13.05
2018-04-13T05:37:11.984Z,13.07
2018-04-13T05:38:12.001Z,13.05
2018-04-13T05:39:12.018Z,13.14
2018-04-13T05:40:12.033Z,13.04
2018-04-13T05:41:12.048Z,13.19
2018-04-13T05:42:12.070Z,13.17
2018-04-13T05:43:12.085Z,13.12
2018-04-13T05:44:12.097Z,13.10
2018-04-13T05:45:12.110Z,13.17
2018-04-13T05:46:12.127Z,13.14
2018-04-13T05:47:12.144Z,13.04
2018-04-13T05:48:12.160Z,13.17
2018-04-13T05:49:12.181Z,13.14
2018-04-13T05:50:12.190Z,13.14
2018-04-13T05:51:12.208Z,13.14
2018-04-13T05:52:12.222Z,13.14
2018-04-13T05:53:12.237Z,13.14
2018-04-13T05:54:12.253Z,13.17
2018-04-13T05:55:12.269Z,13.17
2018-04-13T05:56:12.285Z,13.19
2018-04-13T05:57:12.304Z,13.17
2018-04-13T05:58:12.317Z,13.17
2018-04-13T05:59:12.344Z,13.15
2018-04-13T06:00:12.371Z,13.20
2018-04-13T06:01:12.364Z,13.25
2018-04-13T06:02:12.380Z,13.26
2018-04-13T06:03:12.396Z,13.29
2018-04-13T06:04:12.413Z,13.32
2018-04-13T06:05:12.427Z,13.44
2018-04-13T06:06:12.444Z,13.39
2018-04-13T06:07:12.460Z,13.46
2018-04-13T06:08:12.475Z,13.42
2018-04-13T06:09:12.490Z,13.42
2018-04-13T06:10:12.506Z,13.48
2018-04-13T06:11:12.529Z,13.46
2018-04-13T06:12:12.539Z,13.59
2018-04-13T06:13:12.553Z,13.62
2018-04-13T06:14:12.573Z,13.59
2018-04-13T06:15:13.083Z,13.60
2018-04-13T06:16:12.603Z,13.66
2018-04-13T06:17:12.623Z,13.75
2018-04-13T06:18:12.664Z,13.77
2018-04-13T06:19:12.651Z,13.77
2018-04-13T06:20:12.674Z,13.73
2018-04-13T06:21:12.686Z,13.78
2018-04-13T06:22:12.702Z,13.82
2018-04-13T06:23:12.718Z,13.95
2018-04-13T06:24:12.738Z,13.92
2018-04-13T06:25:12.746Z,13.87
2018-04-13T06:26:12.763Z,13.96
2018-04-13T06:27:12.782Z,13.95
2018-04-13T06:28:12.797Z,14.09
2018-04-13T06:29:12.811Z,13.95
2018-04-13T06:30:12.870Z,14.04
2018-04-13T06:31:12.851Z,13.97
2018-04-13T06:32:12.864Z,14.07
2018-04-13T06:33:12.880Z,14.07
2018-04-13T06:34:12.893Z,14.12
2018-04-13T06:35:12.913Z,14.22
2018-04-13T06:36:12.929Z,14.35
2018-04-13T06:37:12.996Z,14.36
2018-04-13T06:38:12.973Z,14.32
2018-04-13T06:39:12.975Z,14.33
2018-04-13T06:40:12.992Z,14.36
2018-04-13T06:41:13.005Z,14.35
2018-04-13T06:42:13.399Z,14.45
2018-04-13T06:43:13.041Z,14.39
2018-04-13T06:44:13.054Z,14.36
2018-04-13T06:45:13.071Z,14.27
2018-04-13T06:46:13.089Z,14.28
2018-04-13T06:47:13.104Z,14.27
2018-04-13T06:48:13.120Z,14.22
2018-04-13T06:49:13.186Z,14.27
2018-04-13T06:50:13.304Z,14.21
2018-04-13T06:51:13.272Z,14.21
2018-04-13T06:52:13.181Z,14.25
2018-04-13T06:53:13.208Z,14.36
2018-04-13T06:54:13.214Z,14.21
2018-04-13T06:55:13.229Z,14.25
2018-04-13T06:56:13.246Z,14.28
2018-04-13T06:57:13.262Z,14.28
2018-04-13T06:58:13.278Z,14.25
2018-04-13T06:59:13.354Z,14.28
2018-04-13T07:00:13.312Z,14.20
2018-04-13T07:01:13.350Z,14.36
2018-04-13T07:02:13.341Z,14.36
2018-04-13T07:03:13.363Z,14.50
2018-04-13T07:04:13.376Z,14.43
2018-04-13T07:05:13.392Z,14.50
2018-04-13T07:06:13.415Z,14.50
2018-04-13T07:07:13.429Z,14.51
2018-04-13T07:08:13.437Z,14.58
2018-04-13T07:09:13.485Z,14.51
2018-04-13T07:10:13.491Z,14.50
2018-04-13T07:11:13.491Z,14.51
2018-04-13T07:12:13.505Z,14.51
2018-04-13T07:13:13.521Z,14.57
2018-04-13T07:14:13.769Z,14.69
2018-04-13T07:15:13.785Z,14.75
2018-04-13T07:16:13.691Z,14.78
2018-04-13T07:17:13.639Z,14.89
2018-04-13T07:18:13.601Z,14.92
2018-04-13T07:19:13.632Z,14.86
2018-04-13T07:20:13.637Z,14.91
2018-04-13T07:21:13.651Z,14.99
2018-04-13T07:22:13.675Z,15.07
2018-04-13T07:23:13.682Z,15.06
2018-04-13T07:24:13.909Z,14.94
2018-04-13T07:25:13.719Z,14.83
2018-04-13T07:26:13.754Z,14.92
2018-04-13T07:27:13.753Z,14.88
2018-04-13T07:28:13.764Z,14.84
2018-04-13T07:29:13.782Z,14.77
2018-04-13T07:30:13.808Z,14.77
2018-04-13T07:31:13.817Z,14.88
2018-04-13T07:32:13.833Z,14.88
2018-04-13T07:33:13.850Z,14.88
2018-04-13T07:34:13.868Z,14.89
2018-04-13T07:35:13.882Z,14.88
2018-04-13T07:36:13.920Z,14.91
2018-04-13T07:37:13.928Z,14.94
2018-04-13T07:38:13.947Z,14.92
2018-04-13T07:39:13.945Z,14.92
2018-04-13T07:40:13.961Z,14.95
2018-04-13T07:41:13.985Z,14.96
2018-04-13T07:42:15.101Z,14.91
2018-04-13T07:43:14.027Z,14.95
2018-04-13T07:44:14.054Z,14.92
2018-04-13T07:45:14.045Z,14.91
2018-04-13T07:46:14.065Z,14.91
2018-04-13T07:47:14.086Z,14.91
2018-04-13T07:48:14.103Z,14.91
2018-04-13T07:49:14.110Z,14.95
2018-04-13T07:50:14.293Z,14.89
2018-04-13T07:51:14.142Z,14.92
2018-04-13T07:52:14.158Z,14.96
2018-04-13T07:53:14.179Z,15.03
2018-04-13T07:54:14.190Z,14.96
2018-04-13T07:55:14.208Z,14.98
2018-04-13T07:56:14.231Z,14.99
2018-04-13T07:57:14.310Z,15.02
2018-04-13T07:58:14.252Z,15.07
2018-04-13T07:59:14.280Z,15.02
2018-04-13T08:00:14.294Z,15.03
2018-04-13T08:01:14.565Z,15.17
2018-04-13T08:02:14.321Z,15.17
2018-04-13T08:03:14.344Z,15.20
2018-04-13T08:04:14.350Z,15.27
2018-04-13T08:05:14.371Z,15.21
2018-04-13T08:06:14.386Z,15.29
2018-04-13T08:07:14.410Z,15.36
2018-04-13T08:08:14.417Z,15.32
2018-04-13T08:09:14.446Z,15.41
2018-04-13T08:10:14.703Z,15.43
2018-04-13T08:11:14.476Z,15.50
2018-04-13T08:12:14.487Z,15.50
2018-04-13T08:13:14.501Z,15.59
2018-04-13T08:14:14.516Z,15.57
2018-04-13T08:15:14.535Z,15.57
2018-04-13T08:16:14.554Z,15.74
2018-04-13T08:17:14.563Z,15.74
2018-04-13T08:18:14.613Z,15.75
2018-04-13T08:19:14.602Z,15.71
2018-04-13T08:20:14.614Z,15.67
2018-04-13T08:21:14.636Z,15.74
2018-04-13T08:22:14.660Z,15.71
2018-04-13T08:23:14.664Z,15.54
2018-04-13T08:24:14.687Z,15.62
2018-04-13T08:25:14.871Z,15.76
2018-04-13T08:26:14.715Z,15.74
2018-04-13T08:27:14.738Z,15.76
2018-04-13T08:28:14.751Z,15.87
2018-04-13T08:29:14.819Z,15.93
2018-04-13T08:30:14.779Z,15.92
2018-04-13T08:31:14.812Z,16.01
2018-04-13T08:32:14.818Z,16.07
2018-04-13T08:33:14.834Z,16.07
2018-04-13T08:34:14.845Z,16.05
2018-04-13T08:35:14.876Z,16.15
2018-04-13T08:36:14.884Z,16.25
2018-04-13T08:37:14.902Z,16.12
2018-04-13T08:38:15.062Z,16.17
2018-04-13T08:39:14.932Z,16.07
2018-04-13T08:40:14.950Z,16.21
2018-04-13T08:41:14.965Z,16.09
2018-04-13T08:42:14.984Z,16.05
2018-04-13T08:43:15.054Z,16.09
2018-04-13T08:44:15.043Z,16.05
2018-04-13T08:45:15.033Z,16.07
2018-04-13T08:46:15.050Z,16.20
2018-04-13T08:47:15.067Z,16.27
2018-04-13T08:48:15.118Z,16.28
2018-04-13T08:49:15.222Z,16.31
2018-04-13T08:50:15.179Z,16.34
2018-04-13T08:51:15.134Z,16.39
2018-04-13T08:52:15.154Z,16.43
2018-04-13T08:53:15.168Z,16.23
2018-04-13T08:54:15.192Z,16.07
2018-04-13T08:55:15.204Z,16.07
2018-04-13T08:56:15.223Z,16.12
2018-04-13T08:57:15.237Z,16.14
2018-04-13T08:58:15.254Z,16.24
2018-04-13T08:59:15.271Z,16.24
2018-04-13T09:00:15.662Z,16.04
2018-04-13T09:01:15.338Z,16.20
2018-04-13T09:02:15.322Z,16.24
2018-04-13T09:03:15.342Z,16.31
2018-04-13T09:04:15.356Z,16.35
2018-04-13T09:05:15.372Z,16.41
2018-04-13T09:06:15.389Z,16.50
2018-04-13T09:07:15.407Z,16.50
2018-04-13T09:08:15.424Z,16.61
2018-04-13T09:09:15.443Z,16.60
2018-04-13T09:10:15.458Z,16.57
2018-04-13T09:12:15.494Z,16.58
2018-04-13T09:13:15.529Z,16.50
2018-04-13T09:14:15.574Z,16.48
2018-04-13T09:15:15.547Z,16.50
2018-04-13T09:16:15.563Z,16.49
2018-04-13T09:17:15.581Z,16.46
2018-04-13T09:18:15.596Z,16.60
2018-04-13T09:19:15.616Z,16.58
2018-04-13T09:20:15.630Z,16.66
2018-04-13T09:21:15.647Z,16.73
2018-04-13T09:22:15.669Z,16.78
2018-04-13T09:23:15.683Z,16.82
2018-04-13T09:24:15.702Z,16.79
2018-04-13T09:25:15.716Z,16.91
2018-04-13T09:26:15.735Z,16.89
2018-04-13T09:27:15.756Z,16.91
2018-04-13T09:28:15.773Z,16.94
2018-04-13T09:29:15.785Z,16.98
2018-04-13T09:30:15.804Z,17.08
2018-04-13T09:31:15.822Z,17.14
2018-04-13T09:32:15.838Z,17.23
2018-04-13T09:33:16.307Z,17.36
2018-04-13T09:34:15.872Z,17.31
2018-04-13T09:35:15.898Z,17.31
2018-04-13T09:36:16.738Z,17.26
2018-04-13T09:37:15.924Z,17.22
2018-04-13T09:38:15.950Z,17.34
2018-04-13T09:39:16.162Z,17.48
2018-04-13T09:40:15.978Z,17.36
2018-04-13T09:41:15.996Z,17.31
2018-04-13T09:42:16.014Z,17.11
2018-04-13T09:43:16.032Z,17.01
2018-04-13T09:44:16.047Z,17.03
2018-04-13T09:45:16.064Z,16.98
2018-04-13T09:46:16.086Z,17.04
2018-04-13T09:47:16.100Z,17.21
2018-04-13T09:48:16.117Z,17.14
2018-04-13T09:49:16.134Z,17.33
2018-04-13T09:50:16.152Z,17.37
2018-04-13T09:51:16.170Z,17.43
2018-04-13T09:52:16.189Z,17.58
2018-04-13T09:53:16.207Z,17.56
2018-04-13T09:54:16.221Z,17.55
2018-04-13T09:55:16.240Z,17.59
2018-04-13T09:56:16.257Z,17.58
2018-04-13T09:57:16.503Z,17.54
2018-04-13T09:58:16.293Z,17.62
2018-04-13T09:59:16.311Z,17.68
2018-04-13T10:00:16.328Z,17.84
2018-04-13T10:01:16.345Z,17.84
2018-04-13T10:02:16.362Z,17.90
2018-04-13T10:03:16.442Z,17.81
2018-04-13T10:04:18.528Z,17.86
2018-04-13T10:05:16.416Z,17.89
2018-04-13T10:06:16.436Z,18.02
2018-04-13T10:07:16.474Z,18.12
2018-04-13T10:08:16.471Z,18.17
2018-04-13T10:09:16.497Z,18.17
2018-04-13T10:10:16.505Z,18.14
2018-04-13T10:11:16.527Z,18.12
2018-04-13T10:12:16.549Z,18.08
2018-04-13T10:13:16.562Z,18.02
2018-04-13T10:14:16.588Z,18.10
2018-04-13T10:15:16.596Z,17.95
2018-04-13T10:16:16.617Z,17.96
2018-04-13T10:17:16.634Z,17.90
2018-04-13T10:18:16.650Z,17.90
2018-04-13T10:19:16.672Z,17.89
2018-04-13T10:20:16.690Z,17.95
2018-04-13T10:21:16.708Z,17.93
2018-04-13T10:22:16.722Z,18.03
2018-04-13T10:23:16.742Z,18.11
2018-04-13T10:24:16.757Z,17.90
2018-04-13T10:25:16.779Z,17.87
2018-04-13T10:26:16.796Z,17.89
2018-04-13T10:27:16.816Z,17.86
2018-04-13T10:28:16.831Z,17.87
2018-04-13T10:29:16.848Z,17.86
2018-04-13T10:30:16.869Z,17.90
2018-04-13T10:31:16.882Z,18.03
2018-04-13T10:32:16.904Z,18.18
2018-04-13T10:33:16.921Z,18.14
2018-04-13T10:34:16.944Z,18.18
2018-04-13T10:35:16.955Z,18.23
2018-04-13T10:36:16.975Z,18.12
2018-04-13T10:37:16.993Z,17.84
2018-04-13T10:38:17.011Z,17.75
2018-04-13T10:39:17.030Z,17.81
2018-04-13T10:40:17.053Z,17.90
2018-04-13T10:41:17.061Z,18.00
2018-04-13T10:42:17.080Z,18.02
2018-04-13T10:43:17.117Z,18.10
2018-04-13T10:44:17.666Z,18.25
2018-04-13T10:45:17.134Z,18.10
2018-04-13T10:46:17.152Z,18.17
2018-04-13T10:47:17.171Z,18.07
2018-04-13T10:48:17.190Z,18.03
2018-04-13T10:49:17.512Z,18.02
2018-04-13T10:50:17.229Z,18.08
2018-04-13T10:51:17.244Z,18.08
2018-04-13T10:52:17.260Z,18.02
2018-04-13T10:53:17.282Z,18.10
2018-04-13T10:54:17.298Z,18.11
2018-04-13T10:55:17.314Z,18.17
2018-04-13T10:56:17.338Z,18.11
2018-04-13T10:57:17.453Z,18.30
2018-04-13T10:58:17.372Z,18.27
2018-04-13T10:59:17.389Z,18.25
2018-04-13T11:00:17.406Z,18.15
2018-04-13T11:01:17.430Z,18.10
2018-04-13T11:02:17.441Z,18.11
2018-04-13T11:03:17.460Z,18.12
2018-04-13T11:04:17.487Z,18.26
2018-04-13T11:05:17.501Z,18.27
2018-04-13T11:06:17.519Z,18.35
2018-04-13T11:07:17.541Z,18.48
2018-04-13T11:08:17.831Z,18.50
2018-04-13T11:09:17.650Z,18.20
2018-04-13T11:10:18.211Z,18.12
2018-04-13T11:11:17.978Z,18.26
2018-04-13T11:12:17.621Z,18.29
2018-04-13T11:13:17.639Z,18.21
2018-04-13T11:14:17.662Z,18.18
2018-04-13T11:15:17.684Z,18.23
2018-04-13T11:16:17.843Z,18.18
2018-04-13T11:17:18.150Z,18.10
2018-04-13T11:19:17.741Z,18.21
2018-04-13T11:20:17.769Z,18.14
2018-04-13T11:21:18.133Z,18.02
2018-04-13T11:22:17.793Z,17.92
2018-04-13T11:23:17.913Z,18.03
2018-04-13T11:24:17.837Z,18.14
2018-04-13T11:25:17.846Z,18.12
2018-04-13T11:26:17.867Z,18.11
2018-04-13T11:27:17.882Z,18.15
2018-04-13T11:28:17.901Z,18.10
2018-04-13T11:29:17.920Z,18.23
2018-04-13T11:30:17.937Z,18.32
2018-04-13T11:31:17.960Z,18.42
2018-04-13T11:32:17.972Z,18.55
2018-04-13T11:33:17.996Z,18.55
2018-04-13T11:34:18.007Z,18.54
2018-04-13T11:35:18.031Z,18.50
2018-04-13T11:36:18.046Z,18.63
2018-04-13T11:37:18.071Z,18.52
2018-04-13T11:38:18.094Z,18.50
2018-04-13T11:39:18.097Z,18.50
2018-04-13T11:40:18.238Z,18.54
2018-04-13T11:41:18.253Z,18.57
2018-04-13T11:42:18.352Z,18.62
2018-04-13T11:43:18.169Z,18.67
2018-04-13T11:44:18.187Z,18.73
2018-04-13T11:45:18.203Z,18.70
2018-04-13T11:46:18.226Z,18.55
2018-04-13T11:47:18.241Z,18.45
2018-04-13T11:48:18.261Z,18.33
2018-04-13T11:49:18.280Z,18.26
2018-04-13T11:50:18.303Z,18.27
2018-04-13T11:51:18.313Z,18.29
2018-04-13T11:52:18.337Z,18.27
2018-04-13T11:53:18.349Z,18.23
2018-04-13T11:54:18.369Z,18.17
2018-04-13T11:55:18.384Z,18.07
2018-04-13T11:56:18.402Z,18.17
2018-04-13T11:57:18.419Z,18.12
2018-04-13T11:58:18.438Z,18.10
2018-04-13T11:59:18.459Z,18.21
2018-04-13T12:00:18.472Z,18.17
2018-04-13T12:01:18.490Z,18.14
2018-04-13T12:02:18.510Z,18.11
2018-04-13T12:03:18.525Z,18.14
2018-04-13T12:04:18.544Z,18.10
2018-04-13T12:05:18.561Z,18.10
2018-04-13T12:06:18.584Z,17.96
2018-04-13T12:07:18.596Z,17.95
2018-04-13T12:08:18.615Z,18.07
2018-04-13T12:09:18.635Z,17.90
2018-04-13T12:10:18.653Z,17.86
2018-04-13T12:11:18.669Z,17.86
2018-04-13T12:12:18.683Z,17.87
2018-04-13T12:13:18.702Z,17.79
2018-04-13T12:14:18.723Z,17.70
2018-04-13T12:15:18.750Z,17.68
2018-04-13T12:16:18.758Z,17.71
2018-04-13T12:17:18.770Z,17.66
2018-04-13T12:18:18.788Z,17.55
2018-04-13T12:19:18.805Z,17.49
2018-04-13T12:20:18.823Z,17.31
2018-04-13T12:21:18.839Z,17.38
2018-04-13T12:22:18.858Z,17.37
2018-04-13T12:23:18.875Z,17.33
2018-04-13T12:24:18.891Z,17.30
2018-04-13T12:25:18.907Z,17.43
2018-04-13T12:26:18.934Z,17.31
2018-04-13T12:27:18.956Z,17.33
2018-04-13T12:28:18.960Z,17.19
2018-04-13T12:29:18.975Z,17.22
2018-04-13T12:30:18.993Z,17.11
2018-04-13T12:31:19.051Z,17.03
2018-04-13T12:32:19.031Z,17.06
2018-04-13T12:33:19.044Z,17.12
2018-04-13T12:34:19.063Z,17.12
2018-04-13T12:35:19.076Z,17.04
2018-04-13T12:36:19.093Z,16.97
2018-04-13T12:37:19.109Z,17.07
2018-04-13T12:38:19.184Z,17.00
2018-04-13T12:39:19.147Z,17.04
2018-04-13T12:40:19.161Z,17.08
2018-04-13T12:41:19.176Z,17.08
2018-04-13T12:42:19.219Z,17.11
2018-04-13T12:43:19.209Z,17.18
2018-04-13T12:44:19.229Z,17.21
2018-04-13T12:45:19.243Z,17.23
2018-04-13T12:46:19.259Z,17.26
2018-04-13T12:47:19.280Z,17.19
2018-04-13T12:48:19.292Z,17.31
2018-04-13T12:49:19.473Z,17.26
2018-04-13T12:50:19.331Z,17.30
2018-04-13T12:51:19.343Z,17.19
2018-04-13T12:52:19.360Z,17.18
2018-04-13T12:53:19.402Z,17.15
2018-04-13T12:54:19.527Z,17.06